Terminal Aerodrome Forecast
Issued by NWS

Home | Current Version | Previous Version | Text Only | Print | Product List | Glossary On
Versions: 1 2 3 4 5 6 7 8 9 10 11 12 13 14 15 16 17 18 19 20 21 22 23
000
FTUS46 KSEW 200500
TAFHQM
TAF
KHQM 200538Z 2006/2106 27009KT P6SM BKN028
      TEMPO 2006/2008 OVC018
     FM200800 24005KT P6SM OVC018
      TEMPO 2011/2015 OVC009
     FM202000 22010KT P6SM BKN025
     FM202200 25008KT P6SM SCT040
     FM210500 22008KT P6SM BKN030=

USA.gov is the U.S. government's official web portal to all federal, state and local government web resources and services.